Time;durP1;ratioP1;P1;durP2;ratioP2;P2;SDS_P1;SDS_P2;PMS_P1;PMS_P2;Temp;Humidity;BMP_temperature;BMP_pressure;BME280_temperature;BME280_humidity;BME280_pressure;Samples;Min_cycle;Max_cycle;Signal;HPM_P1;HPM_P2
2022/01/12 00:01:05;;;;;;;34.95;19.02;;;;;;;6.48;100.00;102428.00;5078856;28;20043;-73
2022/01/12 00:03:32;;;;;;;35.42;20.08;;;;;;;6.45;100.00;102433.97;5068225;28;20128;-72
2022/01/12 00:05:57;;;;;;;45.95;25.60;;;;;;;6.38;100.00;102436.78;5079238;28;20027;-73
2022/01/12 00:08:23;;;;;;;35.40;19.83;;;;;;;6.40;100.00;102440.13;5099428;28;20036;-73
2022/01/12 00:10:49;;;;;;;33.40;19.10;;;;;;;6.41;100.00;102447.38;5066460;28;20028;-73
2022/01/12 00:13:14;;;;;;;37.75;19.90;;;;;;;6.43;100.00;102442.47;5052303;28;20036;-73
2022/01/12 00:15:40;;;;;;;31.92;19.05;;;;;;;6.43;100.00;102441.63;5089557;27;20030;-73
2022/01/12 00:18:06;;;;;;;30.35;18.63;;;;;;;6.43;100.00;102449.91;5074304;28;20013;-73
2022/01/12 00:20:31;;;;;;;38.92;22.13;;;;;;;6.41;100.00;102458.41;5064085;27;20364;-73
2022/01/12 00:22:57;;;;;;;38.67;22.48;;;;;;;6.37;100.00;102451.63;5045002;28;20358;-72
2022/01/12 00:25:32;;;;;;;37.55;20.73;;;;;;;6.37;100.00;102445.25;5044652;28;20410;-73
2022/01/12 00:33:26;;;;;;;34.75;20.58;;;;;;;6.35;100.00;102461.19;5089175;27;20544;-73
2022/01/12 00:35:53;;;;;;;38.30;21.15;;;;;;;6.34;100.00;102460.34;5055142;28;20020;-73
2022/01/12 00:38:20;;;;;;;39.25;19.65;;;;;;;6.35;100.00;102464.81;5049971;28;20024;-73
2022/01/12 00:40:51;;;;;;;32.03;20.40;;;;;;;6.35;100.00;102464.81;5049447;27;20027;-73
2022/01/12 00:43:17;;;;;;;32.28;19.27;;;;;;;6.34;100.00;102471.38;5082444;28;20093;-73
2022/01/12 00:45:44;;;;;;;34.97;20.02;;;;;;;6.31;100.00;102462.69;5049977;28;20467;-72
2022/01/12 00:48:10;;;;;;;34.78;20.30;;;;;;;6.30;100.00;102472.91;5078323;27;20035;-73
2022/01/12 00:50:35;;;;;;;35.20;18.58;;;;;;;6.31;100.00;102463.53;5081020;28;20070;-72
2022/01/12 00:53:03;;;;;;;35.67;19.75;;;;;;;6.32;100.00;102465.22;5095365;27;20491;-73
2022/01/12 00:55:29;;;;;;;33.85;18.83;;;;;;;6.34;100.00;102460.34;5082341;28;20038;-72
2022/01/12 00:57:57;;;;;;;38.78;18.05;;;;;;;6.31;100.00;102452.50;5069548;27;20019;-73
2022/01/12 01:00:23;;;;;;;33.42;17.08;;;;;;;6.29;100.00;102446.34;5083683;28;20024;-72
2022/01/12 01:02:48;;;;;;;35.78;17.83;;;;;;;6.30;100.00;102449.97;5082208;27;20386;-72
2022/01/12 01:05:19;;;;;;;33.08;18.00;;;;;;;6.30;100.00;102459.09;5079978;28;20023;-72
2022/01/12 01:07:44;;;;;;;;;;;;;;;6.31;100.00;102463.53;5081844;28;20038;-73
2022/01/12 01:10:12;;;;;;;35.13;19.30;;;;;;;6.28;100.00;102466.75;5081767;28;19943;-73
2022/01/12 01:12:37;;;;;;;34.00;18.60;;;;;;;6.26;100.00;102464.19;5064161;27;20035;-72
2022/01/12 01:15:06;;;;;;;33.53;17.92;;;;;;;6.29;100.00;102467.59;5064142;28;20024;-72
2022/01/12 01:25:42;;;;;;;45.00;21.90;;;;;;;6.23;100.00;102463.78;5082429;28;20073;-73
2022/01/12 01:28:08;;;;;;;37.83;19.60;;;;;;;6.25;100.00;102465.25;5041705;28;20024;-73
2022/01/12 01:30:37;;;;;;;35.97;19.30;;;;;;;6.23;100.00;102458.25;5066225;28;20082;-73
2022/01/12 01:33:06;;;;;;;42.35;20.00;;;;;;;6.25;100.00;102453.38;5051550;28;20055;-72
2022/01/12 01:35:32;;;;;;;40.25;20.20;;;;;;;6.25;100.00;102450.63;5068304;28;20100;-73
2022/01/12 01:38:00;;;;;;;34.55;20.20;;;;;;;6.26;100.00;102446.78;5063375;28;20015;-73
2022/01/12 01:40:25;;;;;;;34.50;17.88;;;;;;;6.27;100.00;102442.97;5080857;28;20031;-72
2022/01/12 01:53:39;;;;;;;44.28;20.63;;;;;;;6.35;100.00;102451.00;5094577;28;20028;-72
2022/01/12 01:56:05;;;;;;;38.97;18.90;;;;;;;6.36;100.00;102455.47;5061246;28;20085;-72
2022/01/12 01:58:30;;;;;;;46.30;20.23;;;;;;;6.34;100.00;102449.31;5071604;28;20486;-72
2022/01/12 02:00:56;;;;;;;35.83;20.25;;;;;;;6.35;100.00;102439.09;5059518;28;20027;-72
2022/01/12 02:03:26;;;;;;;33.65;19.65;;;;;;;6.31;100.00;102452.50;5080384;28;20518;-72
2022/01/12 02:05:51;;;;;;;43.42;20.65;;;;;;;6.29;100.00;102462.91;5074645;28;20546;-72
2022/01/12 02:08:17;;;;;;;38.47;19.48;;;;;;;6.27;100.00;102467.81;5060708;28;20028;-72
2022/01/12 02:10:42;;;;;;;36.78;19.15;;;;;;;6.23;100.00;102470.13;5058704;28;20024;-72
2022/01/12 02:13:09;;;;;;;40.55;18.88;;;;;;;6.23;100.00;102477.56;5074407;28;20028;-73
2022/01/12 02:15:34;;;;;;;40.53;19.40;;;;;;;6.21;100.00;102472.28;5068649;28;20119;-72
2022/01/12 02:36:59;;;;;;;45.70;21.88;;;;;;;6.10;100.00;102478.47;5113669;28;20392;-72
2022/01/12 02:42:09;;;;;;;46.03;22.38;;;;;;;6.09;100.00;102467.66;5092709;28;20110;-72
2022/01/12 02:55:32;;;;;;;48.28;22.98;;;;;;;6.13;100.00;102483.56;5100150;28;20060;-72
2022/01/12 02:57:58;;;;;;;54.45;23.90;;;;;;;6.09;100.00;102487.78;5079265;28;20101;-72
2022/01/12 03:00:30;;;;;;;49.90;22.95;;;;;;;6.08;100.00;102485.28;5074749;28;20024;-72
2022/01/12 03:03:02;;;;;;;43.35;19.95;;;;;;;6.10;100.00;102485.88;5070151;28;20027;-73
2022/01/12 03:05:44;;;;;;;43.88;19.42;;;;;;;6.10;100.00;102491.41;5095349;28;20439;-73
2022/01/12 03:08:13;;;;;;;40.72;19.05;;;;;;;6.11;100.00;102495.88;5051426;28;20046;-72
2022/01/12 03:10:39;;;;;;;40.15;19.05;;;;;;;6.08;100.00;102496.31;5083997;28;20027;-73
2022/01/12 03:13:04;;;;;;;40.13;20.15;;;;;;;6.07;100.00;102492.69;5063854;28;20058;-72
2022/01/12 03:15:30;;;;;;;48.05;21.08;;;;;;;6.06;100.00;102509.47;5101277;28;20066;-72
2022/01/12 03:17:56;;;;;;;44.83;20.50;;;;;;;6.04;100.00;102507.78;5109149;28;20054;-72
2022/01/12 03:20:21;;;;;;;40.40;20.05;;;;;;;6.03;100.00;102503.31;5096256;28;20020;-73
2022/01/12 03:22:47;;;;;;;40.13;20.08;;;;;;;6.06;100.00;102510.31;5066437;28;20042;-73
2022/01/12 03:25:12;;;;;;;43.15;21.33;;;;;;;6.04;100.00;102506.91;5115946;28;20110;-72
2022/01/12 03:27:38;;;;;;;42.08;20.50;;;;;;;6.06;100.00;102514.97;5095931;28;20028;-73
2022/01/12 03:30:05;;;;;;;53.38;21.77;;;;;;;6.04;100.00;102517.94;5082802;28;20028;-72
2022/01/12 03:32:44;;;;;;;49.25;22.23;;;;;;;6.03;100.00;102511.56;5093026;28;20058;-72
2022/01/12 03:35:23;;;;;;;50.92;22.40;;;;;;;6.04;100.00;102506.91;5092802;28;20050;-73
2022/01/12 03:38:19;;;;;;;48.83;21.95;;;;;;;6.02;100.00;102503.53;5072916;28;20048;-72
2022/01/12 03:40:39;;;;;;;47.20;22.38;;;;;;;6.04;100.00;102506.91;5115720;27;20084;-73
2022/01/12 03:43:05;;;;;;;48.60;21.25;;;;;;;6.05;100.00;102503.09;5119937;27;20488;-72
2022/01/12 03:45:30;;;;;;;43.83;21.63;;;;;;;6.01;100.00;102508.19;5089359;28;20057;-73
2022/01/12 03:47:56;;;;;;;50.13;22.60;;;;;;;6.03;100.00;102514.34;5110464;28;20032;-72
2022/01/12 03:50:22;;;;;;;53.72;23.98;;;;;;;6.01;100.00;102519.22;5107103;28;20039;-73
2022/01/12 03:52:47;;;;;;;50.20;23.88;;;;;;;6.00;100.00;102519.44;5109692;28;20053;-72
2022/01/12 03:55:13;;;;;;;60.25;24.70;;;;;;;6.00;100.00;102517.53;5090441;28;20054;-72
2022/01/12 03:57:38;;;;;;;53.53;23.92;;;;;;;5.99;100.00;102518.59;5078122;28;20032;-72
2022/01/12 04:00:04;;;;;;;51.80;23.40;;;;;;;6.00;100.00;102519.44;5081772;28;20031;-72
2022/01/12 04:02:31;;;;;;;57.97;24.25;;;;;;;6.01;100.00;102518.38;5113164;28;20051;-72
2022/01/12 04:10:15;;;;;;;60.60;24.17;;;;;;;5.98;100.00;102541.72;5109395;28;20028;-72
2022/01/12 04:12:41;;;;;;;62.53;24.90;;;;;;;5.96;100.00;102546.63;5097902;28;20164;-72
2022/01/12 04:15:07;;;;;;;66.53;24.23;;;;;;;5.96;100.00;102548.50;5111377;28;20078;-72
2022/01/12 04:17:32;;;;;;;52.63;23.55;;;;;;;5.97;100.00;102540.03;5116826;28;20096;-73
2022/01/12 04:20:01;;;;;;;60.53;23.77;;;;;;;5.98;100.00;102549.97;5111988;28;20057;-72
2022/01/12 04:25:10;;;;;;;56.47;23.67;;;;;;;5.97;100.00;102541.94;5082687;28;20049;-72
2022/01/12 04:27:37;;;;;;;58.58;24.05;;;;;;;5.97;100.00;102544.69;5103236;28;20486;-72
2022/01/12 04:30:04;;;;;;;49.35;22.10;;;;;;;5.98;100.00;102541.72;5103114;28;20032;-72
2022/01/12 04:32:30;;;;;;;55.92;24.42;;;;;;;5.99;100.00;102537.91;5104472;27;20074;-73
2022/01/12 04:34:55;;;;;;;59.28;23.20;;;;;;;6.00;100.00;102556.16;5115991;27;20043;-73
2022/01/12 04:37:21;;;;;;;52.53;23.60;;;;;;;5.99;100.00;102554.47;5079734;28;20023;-73
2022/01/12 04:39:46;;;;;;;58.22;24.98;;;;;;;5.99;100.00;102548.94;5086980;27;20023;-73
2022/01/12 04:42:12;;;;;;;59.67;25.08;;;;;;;5.98;100.00;102555.50;5103419;27;20023;-72
2022/01/12 04:44:43;;;;;;;65.57;25.25;;;;;;;5.98;100.00;102558.25;5080524;27;20079;-72
2022/01/12 04:47:16;;;;;;;62.80;26.30;;;;;;;5.96;100.00;102560.41;5103033;27;20114;-72
2022/01/12 04:52:10;;;;;;;62.50;25.27;;;;;;;5.95;100.00;102555.09;5100341;27;20276;-72
2022/01/12 04:54:36;;;;;;;60.67;24.00;;;;;;;5.98;100.00;102549.13;5116727;27;20023;-72
2022/01/12 04:57:01;;;;;;;62.42;23.67;;;;;;;5.99;100.00;102557.22;5083608;28;20494;-72
2022/01/12 04:59:27;;;;;;;64.13;23.50;;;;;;;5.98;100.00;102554.66;5118283;27;20079;-73
2022/01/12 05:01:58;;;;;;;55.60;23.77;;;;;;;5.99;100.00;102553.59;5117919;27;20035;-72
2022/01/12 05:07:31;;;;;;;53.35;21.67;;;;;;;5.99;100.00;102554.47;5095226;27;20108;-73
2022/01/12 05:15:32;;;;;;;36.67;17.30;;;;;;;6.04;100.00;102542.75;5072292;27;20040;-73
2022/01/12 05:17:58;;;;;;;34.60;16.38;;;;;;;6.06;100.00;102556.34;5082067;27;20047;-73
2022/01/12 05:20:23;;;;;;;40.10;16.52;;;;;;;6.07;100.00;102555.28;5093869;28;20034;-72
2022/01/12 05:22:49;;;;;;;35.75;16.13;;;;;;;6.07;100.00;102560.78;5092567;27;20056;-73
2022/01/12 05:25:17;;;;;;;34.72;15.50;;;;;;;6.09;100.00;102569.72;5120881;27;20027;-73
2022/01/12 05:27:44;;;;;;;36.40;16.58;;;;;;;6.08;100.00;102568.88;5093386;27;20148;-73
2022/01/12 05:30:10;;;;;;;35.72;15.15;;;;;;;6.08;100.00;102568.03;5090356;27;20037;-73
2022/01/12 05:32:36;;;;;;;34.80;15.30;;;;;;;6.06;100.00;102571.00;5065490;27;20096;-73
2022/01/12 05:35:04;;;;;;;28.90;14.98;;;;;;;6.04;100.00;102579.50;5078917;28;20055;-73
2022/01/12 05:37:30;;;;;;;37.05;16.10;;;;;;;6.04;100.00;102582.25;5081486;27;20019;-72
2022/01/12 05:39:55;;;;;;;33.58;15.90;;;;;;;6.07;100.00;102578.19;5086504;28;20480;-72
2022/01/12 05:42:21;;;;;;;34.97;15.48;;;;;;;6.05;100.00;102580.34;5061772;28;20430;-73
2022/01/12 05:44:46;;;;;;;28.92;13.60;;;;;;;5.99;100.00;102576.53;5078193;27;20028;-73
2022/01/12 05:47:29;;;;;;;29.25;12.57;;;;;;;5.98;100.00;102583.09;5052272;28;20023;-73
2022/01/12 05:49:55;;;;;;;24.70;13.30;;;;;;;6.00;100.00;102588.41;5082629;28;20024;-72
2022/01/12 05:52:20;;;;;;;23.73;11.52;;;;;;;6.03;100.00;102590.72;5085944;28;20031;-73
2022/01/12 05:54:46;;;;;;;25.05;13.15;;;;;;;6.01;100.00;102582.66;5062325;28;20058;-72
2022/01/12 05:57:11;;;;;;;28.40;13.65;;;;;;;6.02;100.00;102566.97;5081123;28;20023;-72
2022/01/12 05:59:37;;;;;;;26.38;12.35;;;;;;;6.03;100.00;102569.50;5065842;28;20031;-73
2022/01/12 06:02:03;;;;;;;28.58;13.95;;;;;;;6.02;100.00;102587.13;5049926;28;20019;-72
2022/01/12 06:04:28;;;;;;;24.42;12.27;;;;;;;6.05;100.00;102591.38;5066602;28;20027;-73
2022/01/12 06:06:56;;;;;;;21.83;11.65;;;;;;;6.05;100.00;102591.38;5077543;28;20035;-72
2022/01/12 06:09:22;;;;;;;21.30;11.68;;;;;;;6.07;100.00;102588.38;5065231;28;20045;-73
2022/01/12 06:11:48;;;;;;;17.77;10.38;;;;;;;6.05;100.00;102588.63;5062391;28;20027;-72
2022/01/12 06:14:18;;;;;;;18.30;10.63;;;;;;;6.01;100.00;102588.16;5081881;28;20443;-73
2022/01/12 06:16:44;;;;;;;18.55;10.68;;;;;;;6.03;100.00;102588.81;5054285;28;20419;-72
2022/01/12 06:19:09;;;;;;;15.50;9.68;;;;;;;6.03;100.00;102591.56;5040947;28;20024;-73
2022/01/12 06:21:35;;;;;;;18.08;10.05;;;;;;;5.99;100.00;102582.03;5082759;28;20085;-73
2022/01/12 06:24:00;;;;;;;18.30;10.60;;;;;;;5.99;100.00;102587.56;5097199;28;20035;-72
2022/01/12 06:26:26;;;;;;;20.88;9.23;;;;;;;5.96;100.00;102589.88;5064288;28;20020;-72
2022/01/12 06:29:14;;;;;;;16.77;9.48;;;;;;;5.90;100.00;102594.28;5086113;28;20100;-72
2022/01/12 06:31:40;;;;;;;18.10;9.57;;;;;;;5.88;100.00;102596.44;5090412;28;20052;-72
2022/01/12 06:34:06;;;;;;;16.08;9.25;;;;;;;5.87;100.00;102610.41;5085390;28;20035;-72
2022/01/12 06:36:31;;;;;;;16.88;9.88;;;;;;;5.81;100.00;102610.19;5099405;28;20020;-72
2022/01/12 06:38:57;;;;;;;15.95;10.00;;;;;;;5.85;100.00;102602.38;5083398;27;20077;-72
2022/01/12 06:41:23;;;;;;;15.25;8.45;;;;;;;5.85;100.00;102607.91;5067855;28;20035;-73
2022/01/12 06:43:48;;;;;;;16.23;8.75;;;;;;;5.83;100.00;102624.63;5067878;28;20027;-72
2022/01/12 06:46:15;;;;;;;13.07;7.70;;;;;;;5.85;100.00;102618.94;5068659;28;20023;-72
2022/01/12 06:48:41;;;;;;;14.75;8.27;;;;;;;5.80;100.00;102630.56;5083050;27;20479;-73
2022/01/12 06:51:06;;;;;;;13.98;8.23;;;;;;;5.78;100.00;102634.59;5099870;28;20097;-72
2022/01/12 06:53:35;;;;;;;14.27;8.75;;;;;;;5.74;100.00;102634.19;5069007;28;20594;-72
2022/01/12 06:56:00;;;;;;;17.30;9.77;;;;;;;5.74;100.00;102638.81;5104088;28;20039;-73
2022/01/12 06:58:26;;;;;;;17.45;9.73;;;;;;;5.74;100.00;102633.31;5066285;28;20026;-72
2022/01/12 07:00:52;;;;;;;19.60;9.98;;;;;;;5.74;100.00;102636.06;5072716;28;20475;-73
2022/01/12 07:03:17;;;;;;;15.25;9.25;;;;;;;5.76;100.00;102637.56;5080547;28;20467;-73
2022/01/12 07:05:43;;;;;;;16.85;9.25;;;;;;;5.77;100.00;102628.25;5093934;28;20468;-73
2022/01/12 07:08:08;;;;;;;13.98;8.30;;;;;;;5.79;100.00;102628.00;5083433;28;20043;-73
2022/01/12 07:10:34;;;;;;;15.57;9.10;;;;;;;5.74;100.00;102627.78;5098839;28;20024;-72
2022/01/12 07:12:59;;;;;;;20.33;9.77;;;;;;;5.76;100.00;102636.72;5088455;28;20039;-73
2022/01/12 07:15:24;;;;;;;16.73;9.55;;;;;;;5.70;100.00;102645.81;5096269;28;20053;-73
2022/01/12 07:17:50;;;;;;;12.45;8.40;;;;;;;5.69;100.00;102641.38;5085649;27;20065;-72
2022/01/12 07:20:16;;;;;;;16.08;9.02;;;;;;;5.68;100.00;102648.78;5098341;28;20058;-72
2022/01/12 07:22:42;;;;;;;14.35;9.10;;;;;;;5.71;100.00;102644.75;5089766;27;20023;-73
2022/01/12 07:25:07;;;;;;;18.95;10.20;;;;;;;5.68;100.00;102657.06;5084651;28;20028;-73
2022/01/12 07:27:33;;;;;;;15.52;9.52;;;;;;;5.66;100.00;102650.06;5094330;28;20459;-73
2022/01/12 07:29:59;;;;;;;14.52;8.68;;;;;;;5.68;100.00;102657.06;5075012;28;20081;-72
2022/01/12 07:32:24;;;;;;;14.60;9.05;;;;;;;5.70;100.00;102654.09;5066475;28;20116;-72
2022/01/12 07:34:50;;;;;;;14.45;8.90;;;;;;;5.71;100.00;102658.53;5067129;27;20467;-72
2022/01/12 07:37:16;;;;;;;15.07;8.73;;;;;;;5.70;100.00;102663.22;5064087;28;20663;-72
2022/01/12 07:39:42;;;;;;;15.00;8.98;;;;;;;5.69;100.00;102671.72;5066810;28;20115;-72
2022/01/12 07:42:07;;;;;;;15.05;9.48;;;;;;;5.69;100.00;102674.47;5047568;28;20081;-71
2022/01/12 07:44:33;;;;;;;16.88;9.20;;;;;;;5.71;100.00;102675.09;5083365;28;20055;-71
2022/01/12 07:46:58;;;;;;;13.93;8.15;;;;;;;5.73;100.00;102682.09;5066975;27;20431;-71
2022/01/12 07:49:24;;;;;;;15.50;8.23;;;;;;;5.72;100.00;102674.88;5066880;28;20409;-71
2022/01/12 07:51:49;;;;;;;16.05;9.00;;;;;;;5.74;100.00;102677.41;5075074;27;20023;-71
2022/01/12 07:54:15;;;;;;;15.93;9.20;;;;;;;5.74;100.00;102691.22;5090024;28;20081;-71
2022/01/12 07:56:40;;;;;;;13.98;8.40;;;;;;;5.70;100.00;102695.44;5115038;27;20031;-71
2022/01/12 07:59:05;;;;;;;14.35;8.90;;;;;;;5.69;100.00;102699.28;5096968;28;20534;-70
2022/01/12 08:01:31;;;;;;;16.23;9.68;;;;;;;5.69;100.00;102699.28;5073060;28;20035;-71
2022/01/12 08:03:57;;;;;;;16.65;9.45;;;;;;;5.70;100.00;102703.72;5074912;28;20032;-71
2022/01/12 08:06:22;;;;;;;15.38;9.27;;;;;;;5.67;100.00;102701.38;5048878;28;20055;-71
2022/01/12 08:08:48;;;;;;;15.85;9.70;;;;;;;5.64;100.00;102705.41;5069936;28;20084;-71
2022/01/12 08:11:14;;;;;;;16.88;9.18;;;;;;;5.62;100.00;102703.91;5080792;27;20035;-71
2022/01/12 08:13:39;;;;;;;14.77;8.70;;;;;;;5.64;100.00;102708.16;5086720;27;20034;-71
2022/01/12 08:16:05;;;;;;;15.55;8.02;;;;;;;5.63;100.00;102719.38;5072728;28;20028;-71
2022/01/12 08:18:31;;;;;;;16.02;9.32;;;;;;;5.64;100.00;102721.09;5080243;28;20097;-71
2022/01/12 08:20:57;;;;;;;13.60;8.10;;;;;;;5.61;100.00;102733.38;5085240;28;20061;-71
2022/01/12 08:23:22;;;;;;;13.52;7.72;;;;;;;5.56;100.00;102728.50;5084445;28;20032;-71
2022/01/12 08:25:48;;;;;;;11.20;7.18;;;;;;;5.59;100.00;102738.25;5084496;27;20039;-71
2022/01/12 08:28:13;;;;;;;11.95;6.22;;;;;;;5.59;100.00;102752.03;5092091;28;20024;-71
2022/01/12 08:30:39;;;;;;;11.30;6.07;;;;;;;5.52;100.00;102752.03;5093526;27;20423;-71
2022/01/12 08:33:06;;;;;;;9.23;5.85;;;;;;;5.51;100.00;102755.81;5076142;28;20070;-71
2022/01/12 08:35:32;;;;;;;12.18;6.55;;;;;;;5.43;100.00;102760.66;5068101;28;20038;-70
2022/01/12 08:37:58;;;;;;;10.82;6.18;;;;;;;5.40;100.00;102767.44;5065197;28;20027;-71
2022/01/12 08:40:23;;;;;;;9.63;5.75;;;;;;;5.40;100.00;102770.19;5074501;28;20073;-71
2022/01/12 08:42:49;;;;;;;11.77;6.47;;;;;;;5.38;100.00;102769.56;5070467;28;20062;-71
2022/01/12 08:45:15;;;;;;;12.65;6.72;;;;;;;5.35;100.00;102778.25;5078407;28;20023;-71
2022/01/12 08:47:41;;;;;;;11.30;6.70;;;;;;;5.35;100.00;102776.31;5094073;28;20048;-71
2022/01/12 08:50:07;;;;;;;11.98;6.80;;;;;;;5.38;100.00;102767.66;5080694;28;20035;-71
2022/01/12 08:52:32;;;;;;;12.20;6.60;;;;;;;5.38;100.00;102777.81;5051854;28;20020;-71
2022/01/12 08:54:59;;;;;;;14.55;7.18;;;;;;;5.37;100.00;102773.34;5089235;28;20627;-71
2022/01/12 08:57:24;;;;;;;13.60;7.05;;;;;;;5.38;100.00;102777.81;5098520;28;20042;-71
2022/01/12 08:59:50;;;;;;;14.18;7.72;;;;;;;5.42;100.00;102773.59;5093927;28;20024;-71
2022/01/12 09:02:16;;;;;;;13.00;6.97;;;;;;;5.43;100.00;102780.78;5096405;28;20032;-71
2022/01/12 09:04:42;;;;;;;12.23;6.63;;;;;;;5.48;100.00;102782.94;5067854;28;20162;-71
2022/01/12 09:07:08;;;;;;;13.43;6.80;;;;;;;5.52;100.00;102789.75;5045646;28;20435;-70
2022/01/12 09:09:33;;;;;;;12.95;6.85;;;;;;;5.51;100.00;102793.56;5075249;28;20039;-71
2022/01/12 09:11:59;;;;;;;12.48;6.90;;;;;;;5.54;100.00;102796.78;5061046;28;20061;-71
2022/01/12 09:14:24;;;;;;;16.02;8.23;;;;;;;5.52;100.00;102807.16;5065614;28;20043;-71
2022/01/12 09:16:54;;;;;;;15.27;7.93;;;;;;;5.52;100.00;102807.16;5048995;28;20015;-71
2022/01/12 09:19:21;;;;;;;13.30;7.55;;;;;;;5.51;100.00;102810.94;5077173;28;20031;-71
2022/01/12 09:21:46;;;;;;;13.88;7.47;;;;;;;5.55;100.00;102812.25;5078440;28;20055;-71
2022/01/12 09:24:12;;;;;;;12.68;7.50;;;;;;;5.55;100.00;102816.91;5059907;28;20039;-71
2022/01/12 09:26:37;;;;;;;12.38;7.25;;;;;;;5.56;100.00;102816.69;5075515;28;20028;-71
2022/01/12 09:29:03;;;;;;;12.50;6.63;;;;;;;5.59;100.00;102819.03;5097012;27;20051;-71
2022/01/12 09:31:28;;;;;;;10.63;6.63;;;;;;;5.62;100.00;102816.94;5064057;28;20052;-71
2022/01/12 09:33:54;;;;;;;13.40;7.85;;;;;;;5.62;100.00;102825.22;5061482;28;20079;-71
2022/01/12 09:36:20;;;;;;;13.95;7.43;;;;;;;5.63;100.00;102825.03;5074756;28;20063;-71
2022/01/12 09:38:45;;;;;;;13.57;8.23;;;;;;;5.63;100.00;102835.16;5079741;28;20031;-71
2022/01/12 09:41:11;;;;;;;13.82;7.88;;;;;;;5.65;100.00;102838.56;5095523;28;20043;-71
2022/01/12 09:43:38;;;;;;;13.68;8.32;;;;;;;5.67;100.00;102836.47;5081701;28;20036;-71
2022/01/12 09:46:03;;;;;;;14.23;7.80;;;;;;;5.69;100.00;102839.88;5078622;28;20062;-71
2022/01/12 09:48:33;;;;;;;13.65;7.50;;;;;;;5.69;100.00;102840.72;5064173;28;20403;-72
2022/01/12 09:51:01;;;;;;;13.68;7.88;;;;;;;5.68;100.00;102840.94;5077382;28;20042;-71
2022/01/12 09:53:28;;;;;;;11.98;7.25;;;;;;;5.71;100.00;102840.50;5079776;28;20084;-71
2022/01/12 09:55:54;;;;;;;13.85;7.88;;;;;;;5.71;100.00;102843.28;5066164;28;20042;-71
2022/01/12 09:58:19;;;;;;;14.10;7.72;;;;;;;5.69;100.00;102842.66;5076489;28;20484;-71
2022/01/12 10:00:56;;;;;;;12.55;7.80;;;;;;;5.74;100.00;102848.38;5093923;28;20028;-71
2022/01/12 10:03:23;;;;;;;13.65;7.53;;;;;;;5.75;100.00;102855.59;5063099;28;20496;-71
2022/01/12 10:05:49;;;;;;;11.75;7.30;;;;;;;5.79;100.00;102852.25;5081368;28;20096;-71
2022/01/12 10:08:15;;;;;;;11.45;5.90;;;;;;;5.82;100.00;102854.59;5067293;28;20023;-71
2022/01/12 10:10:42;;;;;;;11.68;6.35;;;;;;;5.86;100.00;102857.78;5096069;28;20087;-71
2022/01/12 10:13:22;;;;;;;10.55;6.13;;;;;;;5.89;100.00;102868.41;5063268;28;20092;-71
2022/01/12 10:15:54;;;;;;;11.88;6.03;;;;;;;5.92;100.00;102859.72;5046984;28;20051;-71
2022/01/12 10:18:20;;;;;;;11.45;6.47;;;;;;;5.96;100.00;102866.56;5068076;28;20085;-71
2022/01/12 10:20:46;;;;;;;11.18;6.28;;;;;;;5.99;100.00;102865.28;5095410;28;20504;-71
2022/01/12 10:23:14;;;;;;;11.15;6.25;;;;;;;6.01;100.00;102861.25;5080758;28;20023;-71
2022/01/12 10:25:41;;;;;;;10.63;6.85;;;;;;;6.06;100.00;102863.41;5081291;28;20039;-71
2022/01/12 10:28:13;;;;;;;12.45;6.80;;;;;;;6.11;100.00;102869.16;5077418;28;20031;-71
2022/01/12 10:30:39;;;;;;;11.55;7.05;;;;;;;6.11;100.00;102866.41;5078737;28;20034;-71
2022/01/12 10:33:09;;;;;;;10.65;6.70;;;;;;;6.16;100.00;102865.78;5080109;28;20075;-71
2022/01/12 10:35:42;;;;;;;13.68;7.35;;;;;;;6.17;100.00;102870.25;5085593;28;20041;-71
2022/01/12 10:38:12;;;;;;;11.98;7.30;;;;;;;6.21;100.00;102866.88;5078783;28;20035;-71
2022/01/12 10:40:54;;;;;;;12.48;7.10;;;;;;;6.24;100.00;102873.84;5057093;28;20032;-71
2022/01/12 10:43:32;;;;;;;10.73;6.22;;;;;;;6.29;100.00;102874.09;5074400;28;20035;-71
2022/01/12 10:45:58;;;;;;;13.00;7.32;;;;;;;6.28;100.00;102871.56;5096132;28;20042;-71
2022/01/12 10:48:25;;;;;;;14.68;7.35;;;;;;;6.29;100.00;102868.56;5056431;28;20392;-71
2022/01/12 10:50:57;;;;;;;11.43;7.20;;;;;;;6.31;100.00;102871.97;5106442;28;20036;-71
2022/01/12 10:53:31;;;;;;;11.45;6.90;;;;;;;6.34;100.00;102876.22;5094196;28;20495;-71
2022/01/12 10:56:04;;;;;;;12.75;7.70;;;;;;;6.35;100.00;102866.88;5082052;28;20058;-71
2022/01/12 10:58:30;;;;;;;12.98;7.35;;;;;;;6.37;100.00;102868.38;5061147;28;20077;-71
2022/01/12 11:00:56;;;;;;;12.23;7.05;;;;;;;6.39;100.00;102863.50;5064431;28;20099;-72
2022/01/12 11:03:21;;;;;;;14.60;7.72;;;;;;;6.42;100.00;102857.56;5063325;28;20533;-73
2022/01/12 11:05:47;;;;;;;10.55;6.20;;;;;;;6.45;100.00;102857.16;5075852;28;20032;-73
2022/01/12 11:08:13;;;;;;;11.95;7.70;;;;;;;6.48;100.00;102859.47;5122627;28;20057;-72
2022/01/12 11:10:38;;;;;;;;;;;;;;;6.54;100.00;102854.19;5084352;28;20032;-73
2022/01/12 11:13:04;;;;;;;11.40;7.28;;;;;;;6.56;100.00;102852.06;5109926;28;19915;-73
2022/01/12 11:15:29;;;;;;;11.13;6.60;;;;;;;6.61;100.00;102855.06;5072567;28;20043;-73
2022/01/12 11:17:55;;;;;;;12.25;7.18;;;;;;;6.66;100.00;102849.75;5073851;28;20471;-72
2022/01/12 11:20:25;;;;;;;14.02;8.13;;;;;;;6.70;100.00;102860.16;5098819;27;20031;-72
2022/01/12 11:22:55;;;;;;;13.02;7.85;;;;;;;6.73;100.00;102858.88;5085954;27;20027;-73
2022/01/12 11:25:23;;;;;;;13.05;7.97;;;;;;;6.77;100.00;102865.72;5097836;27;20037;-73
2022/01/12 11:28:02;;;;;;;14.13;8.20;;;;;;;6.79;100.00;102863.56;5095129;28;20051;-72
2022/01/12 11:30:28;;;;;;;12.50;7.40;;;;;;;6.83;100.00;102852.97;5088553;27;20560;-73
2022/01/12 11:33:02;;;;;;;13.68;8.02;;;;;;;6.87;100.00;102851.47;5066509;28;20047;-76
2022/01/12 11:35:30;;;;;;;12.98;7.68;;;;;;;6.91;100.00;102853.59;5055466;27;20027;-72
2022/01/12 11:37:59;;;;;;;12.35;7.43;;;;;;;6.95;100.00;102845.72;5102839;27;20031;-72
2022/01/12 11:40:40;;;;;;;10.90;7.53;;;;;;;6.99;100.00;102843.38;5111604;27;20035;-72
2022/01/12 11:43:27;;;;;;;11.98;7.10;;;;;;;7.02;100.00;102842.94;5136267;27;20066;-74
2022/01/12 11:46:07;;;;;;;11.82;7.53;;;;;;;7.08;100.00;102842.97;5076195;27;20035;-72
2022/01/12 11:48:36;;;;;;;12.63;7.85;;;;;;;7.14;100.00;102833.81;5093876;28;20445;-75
2022/01/12 11:51:02;;;;;;;12.82;7.25;;;;;;;7.21;100.00;102838.47;5079837;27;20091;-73
2022/01/12 11:53:31;;;;;;;13.65;7.80;;;;;;;7.27;100.00;102821.91;5077442;27;20023;-73
2022/01/12 11:56:09;;;;;;;11.77;7.20;;;;;;;7.32;100.00;102824.84;5097346;27;20031;-72
2022/01/12 11:58:34;;;;;;;11.50;7.55;;;;;;;7.43;100.00;102834.38;5066473;27;20020;-73
2022/01/12 12:01:00;;;;;;;12.10;7.10;;;;;;;7.51;100.00;102830.53;5120992;27;20031;-73
2022/01/12 12:03:26;;;;;;;10.88;6.75;;;;;;;7.58;100.00;102836.91;5063715;27;20020;-72
2022/01/12 12:05:54;;;;;;;12.30;7.28;;;;;;;7.67;100.00;102832.84;5083965;27;20547;-73
2022/01/12 12:08:23;;;;;;;10.07;6.95;;;;;;;7.70;100.00;102832.41;5068557;27;20019;-73
2022/01/12 12:10:51;;;;;;;13.15;7.38;;;;;;;7.75;100.00;102829.84;5097283;28;20114;-72
2022/01/12 12:13:16;;;;;;;10.85;7.10;;;;;;;7.81;100.00;102822.56;5094140;27;20023;-72
2022/01/12 12:15:42;;;;;;;12.98;7.18;;;;;;;7.86;100.00;102819.16;5117993;27;20042;-72
2022/01/12 12:18:07;;;;;;;10.77;7.18;;;;;;;7.88;100.00;102815.06;5100161;27;20059;-72
2022/01/12 12:20:33;;;;;;;11.10;6.97;;;;;;;7.95;100.00;102812.28;5082379;27;20034;-72
2022/01/12 12:22:59;;;;;;;12.23;7.60;;;;;;;7.97;100.00;102821.22;5086347;27;20034;-72
2022/01/12 12:25:26;;;;;;;12.68;8.10;;;;;;;7.99;100.00;102811.63;5061852;27;20459;-72
2022/01/12 12:27:59;;;;;;;12.50;7.57;;;;;;;8.03;100.00;102810.13;5116494;28;20042;-72
2022/01/12 12:30:26;;;;;;;11.00;7.07;;;;;;;8.06;100.00;102814.38;5086240;28;20032;-72